sensor_id;sensor_type;location;lat;lon;timestamp;P1;durP1;ratioP1;P2;durP2;ratioP2
15831;SDS011;8016;49.928;9.372;2023-07-20T00:00:56;5.27;;;3.90;;
15831;SDS011;8016;49.928;9.372;2023-07-20T00:03:22;5.27;;;4.80;;
15831;SDS011;8016;49.928;9.372;2023-07-20T00:05:50;10.13;;;4.70;;
15831;SDS011;8016;49.928;9.372;2023-07-20T00:08:16;13.53;;;5.40;;
15831;SDS011;8016;49.928;9.372;2023-07-20T00:10:43;6.13;;;5.50;;
15831;SDS011;8016;49.928;9.372;2023-07-20T00:13:09;9.70;;;5.67;;
15831;SDS011;8016;49.928;9.372;2023-07-20T00:15:35;9.33;;;6.47;;
15831;SDS011;8016;49.928;9.372;2023-07-20T00:18:02;5.83;;;4.33;;
15831;SDS011;8016;49.928;9.372;2023-07-20T00:20:28;4.87;;;4.33;;
15831;SDS011;8016;49.928;9.372;2023-07-20T00:22:54;5.50;;;5.00;;
15831;SDS011;8016;49.928;9.372;2023-07-20T00:25:22;7.10;;;5.40;;
15831;SDS011;8016;49.928;9.372;2023-07-20T00:27:48;5.73;;;5.23;;
15831;SDS011;8016;49.928;9.372;2023-07-20T00:30:14;13.63;;;5.23;;
15831;SDS011;8016;49.928;9.372;2023-07-20T00:32:41;13.80;;;5.90;;
15831;SDS011;8016;49.928;9.372;2023-07-20T00:35:08;10.03;;;5.33;;
15831;SDS011;8016;49.928;9.372;2023-07-20T00:37:34;5.37;;;4.57;;
15831;SDS011;8016;49.928;9.372;2023-07-20T00:40:00;4.87;;;4.33;;
15831;SDS011;8016;49.928;9.372;2023-07-20T00:42:26;5.17;;;4.67;;
15831;SDS011;8016;49.928;9.372;2023-07-20T00:44:52;7.93;;;4.27;;
15831;SDS011;8016;49.928;9.372;2023-07-20T00:47:18;5.10;;;4.33;;
15831;SDS011;8016;49.928;9.372;2023-07-20T00:49:44;6.37;;;4.53;;
15831;SDS011;8016;49.928;9.372;2023-07-20T00:52:10;6.13;;;4.43;;
15831;SDS011;8016;49.928;9.372;2023-07-20T00:54:37;5.07;;;4.43;;
15831;SDS011;8016;49.928;9.372;2023-07-20T00:57:03;6.57;;;4.57;;
15831;SDS011;8016;49.928;9.372;2023-07-20T00:59:30;5.67;;;3.80;;
15831;SDS011;8016;49.928;9.372;2023-07-20T01:01:56;6.47;;;3.80;;
15831;SDS011;8016;49.928;9.372;2023-07-20T01:04:22;4.40;;;3.93;;
15831;SDS011;8016;49.928;9.372;2023-07-20T01:09:28;7.27;;;4.10;;
15831;SDS011;8016;49.928;9.372;2023-07-20T01:12:14;7.67;;;3.97;;
15831;SDS011;8016;49.928;9.372;2023-07-20T01:14:44;5.90;;;4.70;;
15831;SDS011;8016;49.928;9.372;2023-07-20T01:17:10;6.27;;;4.53;;
15831;SDS011;8016;49.928;9.372;2023-07-20T01:19:37;5.10;;;4.07;;
15831;SDS011;8016;49.928;9.372;2023-07-20T01:22:09;5.43;;;4.13;;
15831;SDS011;8016;49.928;9.372;2023-07-20T01:27:17;7.37;;;4.23;;
15831;SDS011;8016;49.928;9.372;2023-07-20T01:32:14;5.77;;;4.03;;
15831;SDS011;8016;49.928;9.372;2023-07-20T01:34:42;7.87;;;4.57;;
15831;SDS011;8016;49.928;9.372;2023-07-20T01:37:09;7.67;;;4.47;;
15831;SDS011;8016;49.928;9.372;2023-07-20T01:39:36;8.93;;;5.17;;
15831;SDS011;8016;49.928;9.372;2023-07-20T01:42:03;5.67;;;4.30;;
15831;SDS011;8016;49.928;9.372;2023-07-20T01:44:29;10.10;;;4.87;;
15831;SDS011;8016;49.928;9.372;2023-07-20T01:46:55;5.90;;;4.00;;
15831;SDS011;8016;49.928;9.372;2023-07-20T01:49:21;7.20;;;4.07;;
15831;SDS011;8016;49.928;9.372;2023-07-20T01:51:47;5.43;;;4.40;;
15831;SDS011;8016;49.928;9.372;2023-07-20T01:54:13;6.43;;;4.33;;
15831;SDS011;8016;49.928;9.372;2023-07-20T01:56:39;4.83;;;4.33;;
15831;SDS011;8016;49.928;9.372;2023-07-20T01:59:05;8.93;;;5.10;;
15831;SDS011;8016;49.928;9.372;2023-07-20T02:01:31;5.80;;;4.60;;
15831;SDS011;8016;49.928;9.372;2023-07-20T02:03:56;8.97;;;5.43;;
15831;SDS011;8016;49.928;9.372;2023-07-20T02:06:22;8.43;;;4.90;;
15831;SDS011;8016;49.928;9.372;2023-07-20T02:08:48;10.40;;;4.53;;
15831;SDS011;8016;49.928;9.372;2023-07-20T02:11:14;8.73;;;4.80;;
15831;SDS011;8016;49.928;9.372;2023-07-20T02:13:40;5.20;;;4.33;;
15831;SDS011;8016;49.928;9.372;2023-07-20T02:16:06;8.90;;;4.82;;
15831;SDS011;8016;49.928;9.372;2023-07-20T02:18:32;5.27;;;4.40;;
15831;SDS011;8016;49.928;9.372;2023-07-20T02:20:58;5.23;;;4.60;;
15831;SDS011;8016;49.928;9.372;2023-07-20T02:23:24;6.53;;;4.83;;
15831;SDS011;8016;49.928;9.372;2023-07-20T02:25:50;7.20;;;4.50;;
15831;SDS011;8016;49.928;9.372;2023-07-20T02:28:16;12.93;;;4.90;;
15831;SDS011;8016;49.928;9.372;2023-07-20T02:30:42;5.20;;;4.70;;
15831;SDS011;8016;49.928;9.372;2023-07-20T02:33:08;7.17;;;4.93;;
15831;SDS011;8016;49.928;9.372;2023-07-20T02:35:34;5.10;;;4.60;;
15831;SDS011;8016;49.928;9.372;2023-07-20T02:38:00;4.97;;;4.40;;
15831;SDS011;8016;49.928;9.372;2023-07-20T02:40:26;4.90;;;4.50;;
15831;SDS011;8016;49.928;9.372;2023-07-20T02:42:52;5.80;;;5.17;;
15831;SDS011;8016;49.928;9.372;2023-07-20T02:45:18;5.77;;;4.90;;
15831;SDS011;8016;49.928;9.372;2023-07-20T02:47:44;8.53;;;5.33;;
15831;SDS011;8016;49.928;9.372;2023-07-20T02:50:10;7.50;;;5.17;;
15831;SDS011;8016;49.928;9.372;2023-07-20T02:52:39;8.30;;;4.50;;
15831;SDS011;8016;49.928;9.372;2023-07-20T02:55:05;7.60;;;4.70;;
15831;SDS011;8016;49.928;9.372;2023-07-20T02:57:31;7.33;;;4.40;;
15831;SDS011;8016;49.928;9.372;2023-07-20T02:59:57;4.57;;;4.07;;
15831;SDS011;8016;49.928;9.372;2023-07-20T03:02:23;4.50;;;3.67;;
15831;SDS011;8016;49.928;9.372;2023-07-20T03:04:48;3.63;;;3.33;;
15831;SDS011;8016;49.928;9.372;2023-07-20T03:07:14;5.10;;;3.30;;
15831;SDS011;8016;49.928;9.372;2023-07-20T03:09:40;3.30;;;3.10;;
15831;SDS011;8016;49.928;9.372;2023-07-20T03:12:08;4.23;;;3.83;;
15831;SDS011;8016;49.928;9.372;2023-07-20T03:14:34;6.43;;;3.93;;
15831;SDS011;8016;49.928;9.372;2023-07-20T03:17:00;7.23;;;3.80;;
15831;SDS011;8016;49.928;9.372;2023-07-20T03:19:26;4.63;;;4.23;;
15831;SDS011;8016;49.928;9.372;2023-07-20T03:21:53;5.77;;;3.60;;
15831;SDS011;8016;49.928;9.372;2023-07-20T03:24:19;3.70;;;3.40;;
15831;SDS011;8016;49.928;9.372;2023-07-20T03:26:46;4.40;;;4.00;;
15831;SDS011;8016;49.928;9.372;2023-07-20T03:29:12;3.87;;;3.53;;
15831;SDS011;8016;49.928;9.372;2023-07-20T03:31:38;4.50;;;4.10;;
15831;SDS011;8016;49.928;9.372;2023-07-20T03:34:04;4.30;;;3.90;;
15831;SDS011;8016;49.928;9.372;2023-07-20T03:36:31;4.57;;;3.80;;
15831;SDS011;8016;49.928;9.372;2023-07-20T03:38:57;4.27;;;3.87;;
15831;SDS011;8016;49.928;9.372;2023-07-20T03:41:23;4.17;;;3.80;;
15831;SDS011;8016;49.928;9.372;2023-07-20T03:43:48;7.07;;;4.10;;
15831;SDS011;8016;49.928;9.372;2023-07-20T03:46:15;5.80;;;3.73;;
15831;SDS011;8016;49.928;9.372;2023-07-20T03:48:41;6.73;;;4.20;;
15831;SDS011;8016;49.928;9.372;2023-07-20T03:51:07;4.07;;;3.70;;
15831;SDS011;8016;49.928;9.372;2023-07-20T03:53:33;5.90;;;3.80;;
15831;SDS011;8016;49.928;9.372;2023-07-20T03:55:59;4.37;;;3.50;;
15831;SDS011;8016;49.928;9.372;2023-07-20T03:58:25;4.07;;;3.67;;
15831;SDS011;8016;49.928;9.372;2023-07-20T04:00:51;3.20;;;2.90;;
15831;SDS011;8016;49.928;9.372;2023-07-20T04:03:17;2.90;;;2.70;;
15831;SDS011;8016;49.928;9.372;2023-07-20T04:05:44;3.50;;;2.90;;
15831;SDS011;8016;49.928;9.372;2023-07-20T04:08:10;3.37;;;2.70;;
15831;SDS011;8016;49.928;9.372;2023-07-20T04:10:36;3.43;;;2.90;;
15831;SDS011;8016;49.928;9.372;2023-07-20T04:13:03;2.83;;;2.63;;
15831;SDS011;8016;49.928;9.372;2023-07-20T04:15:29;4.00;;;2.80;;
15831;SDS011;8016;49.928;9.372;2023-07-20T04:17:55;3.13;;;2.93;;
15831;SDS011;8016;49.928;9.372;2023-07-20T04:20:21;6.10;;;2.93;;
15831;SDS011;8016;49.928;9.372;2023-07-20T04:22:47;3.70;;;3.40;;
15831;SDS011;8016;49.928;9.372;2023-07-20T04:25:13;3.50;;;2.60;;
15831;SDS011;8016;49.928;9.372;2023-07-20T04:27:39;3.03;;;2.83;;
15831;SDS011;8016;49.928;9.372;2023-07-20T04:30:07;4.00;;;3.43;;
15831;SDS011;8016;49.928;9.372;2023-07-20T04:32:33;3.23;;;2.93;;
15831;SDS011;8016;49.928;9.372;2023-07-20T04:34:59;3.23;;;2.60;;
15831;SDS011;8016;49.928;9.372;2023-07-20T04:37:25;3.07;;;2.77;;
15831;SDS011;8016;49.928;9.372;2023-07-20T04:39:51;7.53;;;2.80;;
15831;SDS011;8016;49.928;9.372;2023-07-20T04:42:17;5.90;;;3.13;;
15831;SDS011;8016;49.928;9.372;2023-07-20T04:44:43;3.13;;;2.83;;
15831;SDS011;8016;49.928;9.372;2023-07-20T04:47:09;5.03;;;3.00;;
15831;SDS011;8016;49.928;9.372;2023-07-20T04:49:35;5.50;;;3.00;;
15831;SDS011;8016;49.928;9.372;2023-07-20T04:52:01;7.80;;;3.20;;
15831;SDS011;8016;49.928;9.372;2023-07-20T04:54:27;6.90;;;4.27;;
15831;SDS011;8016;49.928;9.372;2023-07-20T04:56:53;6.27;;;3.67;;
15831;SDS011;8016;49.928;9.372;2023-07-20T04:59:19;3.03;;;2.77;;
15831;SDS011;8016;49.928;9.372;2023-07-20T05:01:46;4.23;;;3.10;;
15831;SDS011;8016;49.928;9.372;2023-07-20T05:04:12;4.03;;;2.70;;
15831;SDS011;8016;49.928;9.372;2023-07-20T05:06:38;2.87;;;2.37;;
15831;SDS011;8016;49.928;9.372;2023-07-20T05:09:04;3.73;;;2.43;;
15831;SDS011;8016;49.928;9.372;2023-07-20T05:11:31;2.37;;;1.83;;
15831;SDS011;8016;49.928;9.372;2023-07-20T05:13:57;2.67;;;2.07;;
15831;SDS011;8016;49.928;9.372;2023-07-20T05:16:23;4.33;;;2.10;;
15831;SDS011;8016;49.928;9.372;2023-07-20T05:18:49;2.50;;;2.30;;
15831;SDS011;8016;49.928;9.372;2023-07-20T05:21:16;3.87;;;2.70;;
15831;SDS011;8016;49.928;9.372;2023-07-20T05:23:42;2.27;;;2.00;;
15831;SDS011;8016;49.928;9.372;2023-07-20T05:26:08;2.33;;;2.10;;
15831;SDS011;8016;49.928;9.372;2023-07-20T05:28:34;2.20;;;2.00;;
15831;SDS011;8016;49.928;9.372;2023-07-20T05:31:02;3.83;;;2.30;;
15831;SDS011;8016;49.928;9.372;2023-07-20T05:33:28;7.27;;;2.23;;
15831;SDS011;8016;49.928;9.372;2023-07-20T05:35:54;5.37;;;2.53;;
15831;SDS011;8016;49.928;9.372;2023-07-20T05:38:20;2.40;;;2.20;;
15831;SDS011;8016;49.928;9.372;2023-07-20T05:40:47;4.53;;;2.73;;
15831;SDS011;8016;49.928;9.372;2023-07-20T05:43:13;6.37;;;2.80;;
15831;SDS011;8016;49.928;9.372;2023-07-20T05:45:42;5.50;;;2.60;;
15831;SDS011;8016;49.928;9.372;2023-07-20T05:48:08;5.10;;;2.70;;
15831;SDS011;8016;49.928;9.372;2023-07-20T05:50:36;5.53;;;2.33;;
15831;SDS011;8016;49.928;9.372;2023-07-20T05:53:02;4.87;;;2.67;;
15831;SDS011;8016;49.928;9.372;2023-07-20T05:55:28;4.70;;;2.27;;
15831;SDS011;8016;49.928;9.372;2023-07-20T05:57:54;3.30;;;2.30;;
15831;SDS011;8016;49.928;9.372;2023-07-20T06:00:21;3.83;;;2.50;;
15831;SDS011;8016;49.928;9.372;2023-07-20T06:02:51;5.40;;;2.80;;
15831;SDS011;8016;49.928;9.372;2023-07-20T06:05:18;3.40;;;2.20;;
15831;SDS011;8016;49.928;9.372;2023-07-20T06:07:45;7.47;;;2.30;;
15831;SDS011;8016;49.928;9.372;2023-07-20T06:10:11;3.50;;;2.67;;
15831;SDS011;8016;49.928;9.372;2023-07-20T06:12:37;5.40;;;2.23;;
15831;SDS011;8016;49.928;9.372;2023-07-20T06:15:03;2.77;;;2.27;;
15831;SDS011;8016;49.928;9.372;2023-07-20T06:17:29;5.40;;;2.50;;
15831;SDS011;8016;49.928;9.372;2023-07-20T06:19:55;6.03;;;2.13;;
15831;SDS011;8016;49.928;9.372;2023-07-20T06:22:21;4.30;;;2.30;;
15831;SDS011;8016;49.928;9.372;2023-07-20T06:24:47;4.33;;;2.27;;
15831;SDS011;8016;49.928;9.372;2023-07-20T06:27:13;3.77;;;2.57;;
15831;SDS011;8016;49.928;9.372;2023-07-20T06:29:39;5.97;;;2.37;;
15831;SDS011;8016;49.928;9.372;2023-07-20T06:32:05;4.37;;;2.53;;
15831;SDS011;8016;49.928;9.372;2023-07-20T06:34:31;2.97;;;2.23;;
15831;SDS011;8016;49.928;9.372;2023-07-20T06:37:01;6.73;;;2.40;;
15831;SDS011;8016;49.928;9.372;2023-07-20T06:39:29;3.40;;;2.43;;
15831;SDS011;8016;49.928;9.372;2023-07-20T06:41:55;5.80;;;2.90;;
15831;SDS011;8016;49.928;9.372;2023-07-20T06:44:20;7.68;;;2.78;;
15831;SDS011;8016;49.928;9.372;2023-07-20T06:46:47;4.50;;;2.70;;
15831;SDS011;8016;49.928;9.372;2023-07-20T06:49:23;10.97;;;2.53;;
15831;SDS011;8016;49.928;9.372;2023-07-20T06:51:49;6.43;;;2.67;;
15831;SDS011;8016;49.928;9.372;2023-07-20T06:54:15;5.90;;;3.00;;
15831;SDS011;8016;49.928;9.372;2023-07-20T06:56:41;7.27;;;2.53;;
15831;SDS011;8016;49.928;9.372;2023-07-20T06:59:07;5.07;;;2.37;;
15831;SDS011;8016;49.928;9.372;2023-07-20T07:01:33;5.77;;;2.13;;
15831;SDS011;8016;49.928;9.372;2023-07-20T07:03:59;5.03;;;2.20;;
15831;SDS011;8016;49.928;9.372;2023-07-20T07:06:25;5.87;;;2.47;;
15831;SDS011;8016;49.928;9.372;2023-07-20T07:08:52;5.03;;;2.60;;
15831;SDS011;8016;49.928;9.372;2023-07-20T07:11:18;6.33;;;2.50;;
15831;SDS011;8016;49.928;9.372;2023-07-20T07:13:44;6.70;;;2.47;;
15831;SDS011;8016;49.928;9.372;2023-07-20T07:16:14;4.37;;;2.60;;
15831;SDS011;8016;49.928;9.372;2023-07-20T07:18:43;10.37;;;3.83;;
15831;SDS011;8016;49.928;9.372;2023-07-20T07:21:09;4.97;;;2.60;;
15831;SDS011;8016;49.928;9.372;2023-07-20T07:23:35;6.50;;;2.60;;
15831;SDS011;8016;49.928;9.372;2023-07-20T07:26:01;3.13;;;2.50;;
15831;SDS011;8016;49.928;9.372;2023-07-20T07:28:28;6.00;;;2.40;;
15831;SDS011;8016;49.928;9.372;2023-07-20T07:30:54;5.10;;;2.50;;
15831;SDS011;8016;49.928;9.372;2023-07-20T07:33:21;6.43;;;2.43;;
15831;SDS011;8016;49.928;9.372;2023-07-20T07:35:47;5.77;;;2.40;;
15831;SDS011;8016;49.928;9.372;2023-07-20T07:38:13;5.30;;;2.57;;
15831;SDS011;8016;49.928;9.372;2023-07-20T07:40:39;8.10;;;2.73;;
15831;SDS011;8016;49.928;9.372;2023-07-20T07:43:05;3.57;;;2.23;;
15831;SDS011;8016;49.928;9.372;2023-07-20T07:45:34;5.90;;;2.60;;
15831;SDS011;8016;49.928;9.372;2023-07-20T07:48:03;5.20;;;2.60;;
15831;SDS011;8016;49.928;9.372;2023-07-20T07:50:29;3.83;;;2.30;;
15831;SDS011;8016;49.928;9.372;2023-07-20T07:52:55;6.53;;;2.23;;
15831;SDS011;8016;49.928;9.372;2023-07-20T07:55:21;5.50;;;2.23;;
15831;SDS011;8016;49.928;9.372;2023-07-20T07:57:47;4.10;;;2.30;;
15831;SDS011;8016;49.928;9.372;2023-07-20T08:00:13;4.93;;;2.40;;
15831;SDS011;8016;49.928;9.372;2023-07-20T08:02:40;8.43;;;2.60;;
15831;SDS011;8016;49.928;9.372;2023-07-20T08:05:07;6.33;;;2.47;;
15831;SDS011;8016;49.928;9.372;2023-07-20T08:07:33;3.77;;;2.57;;
15831;SDS011;8016;49.928;9.372;2023-07-20T08:09:59;5.87;;;2.63;;
15831;SDS011;8016;49.928;9.372;2023-07-20T08:12:25;6.77;;;2.67;;
15831;SDS011;8016;49.928;9.372;2023-07-20T08:14:52;3.63;;;2.27;;
15831;SDS011;8016;49.928;9.372;2023-07-20T08:17:18;6.83;;;3.20;;
15831;SDS011;8016;49.928;9.372;2023-07-20T08:19:44;7.60;;;2.60;;
15831;SDS011;8016;49.928;9.372;2023-07-20T08:22:10;7.60;;;2.50;;
15831;SDS011;8016;49.928;9.372;2023-07-20T08:24:39;3.00;;;2.20;;
15831;SDS011;8016;49.928;9.372;2023-07-20T08:27:05;4.67;;;2.40;;
15831;SDS011;8016;49.928;9.372;2023-07-20T08:29:31;5.27;;;2.70;;
15831;SDS011;8016;49.928;9.372;2023-07-20T08:31:57;5.07;;;2.30;;
15831;SDS011;8016;49.928;9.372;2023-07-20T08:34:23;4.57;;;2.47;;
15831;SDS011;8016;49.928;9.372;2023-07-20T08:36:49;6.03;;;2.03;;
15831;SDS011;8016;49.928;9.372;2023-07-20T08:39:15;5.00;;;2.70;;
15831;SDS011;8016;49.928;9.372;2023-07-20T08:41:42;3.80;;;2.50;;
15831;SDS011;8016;49.928;9.372;2023-07-20T08:44:08;4.23;;;2.87;;
15831;SDS011;8016;49.928;9.372;2023-07-20T08:46:35;4.13;;;2.17;;
15831;SDS011;8016;49.928;9.372;2023-07-20T08:49:04;3.50;;;2.10;;
15831;SDS011;8016;49.928;9.372;2023-07-20T08:51:30;3.27;;;2.10;;
15831;SDS011;8016;49.928;9.372;2023-07-20T08:53:56;4.53;;;2.20;;
15831;SDS011;8016;49.928;9.372;2023-07-20T08:56:23;5.10;;;2.50;;
15831;SDS011;8016;49.928;9.372;2023-07-20T08:58:51;5.63;;;2.37;;
15831;SDS011;8016;49.928;9.372;2023-07-20T09:01:17;4.43;;;2.10;;
15831;SDS011;8016;49.928;9.372;2023-07-20T09:03:47;5.40;;;1.90;;
15831;SDS011;8016;49.928;9.372;2023-07-20T09:06:13;4.33;;;1.53;;
15831;SDS011;8016;49.928;9.372;2023-07-20T09:08:42;4.97;;;2.10;;
15831;SDS011;8016;49.928;9.372;2023-07-20T09:11:11;2.33;;;2.03;;
15831;SDS011;8016;49.928;9.372;2023-07-20T09:13:38;6.23;;;2.33;;
15831;SDS011;8016;49.928;9.372;2023-07-20T09:16:04;3.10;;;2.07;;
15831;SDS011;8016;49.928;9.372;2023-07-20T09:18:31;2.73;;;2.17;;
15831;SDS011;8016;49.928;9.372;2023-07-20T09:21:01;2.87;;;2.07;;
15831;SDS011;8016;49.928;9.372;2023-07-20T09:23:33;3.13;;;1.83;;
15831;SDS011;8016;49.928;9.372;2023-07-20T09:26:00;3.73;;;1.70;;
15831;SDS011;8016;49.928;9.372;2023-07-20T09:28:26;2.90;;;1.63;;
15831;SDS011;8016;49.928;9.372;2023-07-20T09:30:54;3.53;;;1.80;;
15831;SDS011;8016;49.928;9.372;2023-07-20T09:33:22;1.90;;;1.40;;
15831;SDS011;8016;49.928;9.372;2023-07-20T09:35:48;1.93;;;1.53;;
15831;SDS011;8016;49.928;9.372;2023-07-20T09:38:14;5.33;;;1.43;;
15831;SDS011;8016;49.928;9.372;2023-07-20T09:40:40;3.33;;;2.10;;
15831;SDS011;8016;49.928;9.372;2023-07-20T09:43:10;6.57;;;1.83;;
15831;SDS011;8016;49.928;9.372;2023-07-20T09:45:39;5.68;;;2.10;;
15831;SDS011;8016;49.928;9.372;2023-07-20T09:48:07;2.70;;;1.80;;
15831;SDS011;8016;49.928;9.372;2023-07-20T09:50:33;3.93;;;1.90;;
15831;SDS011;8016;49.928;9.372;2023-07-20T09:53:00;3.60;;;2.00;;
15831;SDS011;8016;49.928;9.372;2023-07-20T09:55:27;4.33;;;1.80;;
15831;SDS011;8016;49.928;9.372;2023-07-20T09:57:53;2.77;;;1.67;;
15831;SDS011;8016;49.928;9.372;2023-07-20T10:00:20;3.40;;;1.70;;
15831;SDS011;8016;49.928;9.372;2023-07-20T10:02:46;2.47;;;1.83;;
15831;SDS011;8016;49.928;9.372;2023-07-20T10:05:15;4.93;;;2.03;;
15831;SDS011;8016;49.928;9.372;2023-07-20T10:07:46;2.90;;;1.70;;
15831;SDS011;8016;49.928;9.372;2023-07-20T10:10:13;3.03;;;1.60;;
15831;SDS011;8016;49.928;9.372;2023-07-20T10:12:39;3.42;;;1.85;;
15831;SDS011;8016;49.928;9.372;2023-07-20T10:17:33;4.70;;;1.87;;
15831;SDS011;8016;49.928;9.372;2023-07-20T10:19:59;2.53;;;1.60;;
15831;SDS011;8016;49.928;9.372;2023-07-20T10:22:27;3.30;;;1.70;;
15831;SDS011;8016;49.928;9.372;2023-07-20T10:24:55;3.67;;;1.27;;
15831;SDS011;8016;49.928;9.372;2023-07-20T10:27:23;3.33;;;1.23;;
15831;SDS011;8016;49.928;9.372;2023-07-20T10:29:50;1.47;;;1.37;;
15831;SDS011;8016;49.928;9.372;2023-07-20T10:32:16;2.37;;;1.30;;
15831;SDS011;8016;49.928;9.372;2023-07-20T10:34:42;2.03;;;1.50;;
15831;SDS011;8016;49.928;9.372;2023-07-20T10:37:08;1.73;;;1.30;;
15831;SDS011;8016;49.928;9.372;2023-07-20T10:39:34;1.93;;;1.27;;
15831;SDS011;8016;49.928;9.372;2023-07-20T10:44:27;4.93;;;1.40;;
15831;SDS011;8016;49.928;9.372;2023-07-20T10:46:58;3.93;;;1.40;;
15831;SDS011;8016;49.928;9.372;2023-07-20T10:49:24;1.63;;;1.37;;
15831;SDS011;8016;49.928;9.372;2023-07-20T10:51:56;1.50;;;1.40;;
15831;SDS011;8016;49.928;9.372;2023-07-20T10:54:33;1.53;;;1.20;;
15831;SDS011;8016;49.928;9.372;2023-07-20T10:57:21;2.27;;;1.50;;
15831;SDS011;8016;49.928;9.372;2023-07-20T10:59:45;2.97;;;1.70;;
15831;SDS011;8016;49.928;9.372;2023-07-20T11:02:12;3.90;;;1.47;;
15831;SDS011;8016;49.928;9.372;2023-07-20T11:04:45;3.37;;;2.07;;
15831;SDS011;8016;49.928;9.372;2023-07-20T11:07:14;3.63;;;1.60;;
15831;SDS011;8016;49.928;9.372;2023-07-20T11:09:42;3.00;;;1.60;;
15831;SDS011;8016;49.928;9.372;2023-07-20T11:12:12;2.03;;;1.33;;
15831;SDS011;8016;49.928;9.372;2023-07-20T11:14:42;2.13;;;1.50;;
15831;SDS011;8016;49.928;9.372;2023-07-20T11:17:15;3.33;;;1.73;;
15831;SDS011;8016;49.928;9.372;2023-07-20T11:19:45;2.40;;;1.40;;
15831;SDS011;8016;49.928;9.372;2023-07-20T11:22:13;1.70;;;1.60;;
15831;SDS011;8016;49.928;9.372;2023-07-20T11:24:41;1.93;;;1.30;;
15831;SDS011;8016;49.928;9.372;2023-07-20T11:27:08;4.10;;;1.50;;
15831;SDS011;8016;49.928;9.372;2023-07-20T11:29:34;4.17;;;1.33;;
15831;SDS011;8016;49.928;9.372;2023-07-20T11:32:01;2.37;;;1.40;;
15831;SDS011;8016;49.928;9.372;2023-07-20T11:34:29;3.60;;;1.60;;
15831;SDS011;8016;49.928;9.372;2023-07-20T11:36:55;3.60;;;1.40;;
15831;SDS011;8016;49.928;9.372;2023-07-20T11:39:22;2.17;;;1.40;;
15831;SDS011;8016;49.928;9.372;2023-07-20T11:41:56;2.10;;;1.42;;
15831;SDS011;8016;49.928;9.372;2023-07-20T11:44:23;1.83;;;1.40;;
15831;SDS011;8016;49.928;9.372;2023-07-20T11:46:59;1.63;;;1.53;;
15831;SDS011;8016;49.928;9.372;2023-07-20T11:49:26;1.97;;;1.27;;
15831;SDS011;8016;49.928;9.372;2023-07-20T11:51:52;2.60;;;1.57;;
15831;SDS011;8016;49.928;9.372;2023-07-20T11:54:18;2.50;;;1.43;;
15831;SDS011;8016;49.928;9.372;2023-07-20T11:56:44;3.33;;;1.40;;
15831;SDS011;8016;49.928;9.372;2023-07-20T11:59:10;2.97;;;1.50;;
15831;SDS011;8016;49.928;9.372;2023-07-20T12:01:37;2.80;;;1.17;;
15831;SDS011;8016;49.928;9.372;2023-07-20T12:04:03;1.93;;;1.70;;
15831;SDS011;8016;49.928;9.372;2023-07-20T12:06:29;2.63;;;1.60;;
15831;SDS011;8016;49.928;9.372;2023-07-20T12:08:56;1.60;;;1.50;;
15831;SDS011;8016;49.928;9.372;2023-07-20T12:13:58;2.07;;;1.60;;
15831;SDS011;8016;49.928;9.372;2023-07-20T12:16:26;3.83;;;2.07;;
15831;SDS011;8016;49.928;9.372;2023-07-20T12:19:26;2.93;;;1.70;;
15831;SDS011;8016;49.928;9.372;2023-07-20T12:21:45;2.07;;;1.70;;
15831;SDS011;8016;49.928;9.372;2023-07-20T12:24:11;3.20;;;1.57;;
15831;SDS011;8016;49.928;9.372;2023-07-20T12:26:37;2.00;;;1.60;;
15831;SDS011;8016;49.928;9.372;2023-07-20T12:29:03;2.23;;;1.80;;
15831;SDS011;8016;49.928;9.372;2023-07-20T12:31:29;2.33;;;1.80;;
15831;SDS011;8016;49.928;9.372;2023-07-20T12:33:56;4.53;;;1.80;;
15831;SDS011;8016;49.928;9.372;2023-07-20T12:36:22;1.93;;;1.70;;
15831;SDS011;8016;49.928;9.372;2023-07-20T12:38:48;2.83;;;1.83;;
15831;SDS011;8016;49.928;9.372;2023-07-20T12:41:14;2.10;;;1.60;;
15831;SDS011;8016;49.928;9.372;2023-07-20T12:43:44;2.73;;;1.87;;
15831;SDS011;8016;49.928;9.372;2023-07-20T12:46:11;2.10;;;1.38;;
15831;SDS011;8016;49.928;9.372;2023-07-20T12:48:37;2.83;;;1.57;;
15831;SDS011;8016;49.928;9.372;2023-07-20T12:51:05;1.95;;;1.58;;
15831;SDS011;8016;49.928;9.372;2023-07-20T12:53:31;3.03;;;1.60;;
15831;SDS011;8016;49.928;9.372;2023-07-20T12:55:58;3.30;;;1.90;;
15831;SDS011;8016;49.928;9.372;2023-07-20T12:58:24;2.22;;;1.40;;
15831;SDS011;8016;49.928;9.372;2023-07-20T13:00:50;2.30;;;1.30;;
15831;SDS011;8016;49.928;9.372;2023-07-20T13:03:16;4.55;;;1.60;;
15831;SDS011;8016;49.928;9.372;2023-07-20T13:05:44;3.47;;;1.50;;
15831;SDS011;8016;49.928;9.372;2023-07-20T13:08:10;2.40;;;1.45;;
15831;SDS011;8016;49.928;9.372;2023-07-20T13:10:36;1.92;;;1.40;;
15831;SDS011;8016;49.928;9.372;2023-07-20T13:13:03;1.98;;;1.73;;
15831;SDS011;8016;49.928;9.372;2023-07-20T13:15:30;3.63;;;1.70;;
15831;SDS011;8016;49.928;9.372;2023-07-20T13:17:56;2.97;;;1.50;;
15831;SDS011;8016;49.928;9.372;2023-07-20T13:20:23;2.75;;;1.85;;
15831;SDS011;8016;49.928;9.372;2023-07-20T13:22:49;3.25;;;1.50;;
15831;SDS011;8016;49.928;9.372;2023-07-20T13:25:16;5.07;;;1.65;;
15831;SDS011;8016;49.928;9.372;2023-07-20T13:27:42;2.80;;;1.33;;
15831;SDS011;8016;49.928;9.372;2023-07-20T13:30:08;1.98;;;1.30;;
15831;SDS011;8016;49.928;9.372;2023-07-20T13:32:38;2.08;;;1.50;;
15831;SDS011;8016;49.928;9.372;2023-07-20T13:35:04;3.67;;;1.53;;
15831;SDS011;8016;49.928;9.372;2023-07-20T13:37:30;3.05;;;1.92;;
15831;SDS011;8016;49.928;9.372;2023-07-20T13:39:56;3.42;;;1.60;;
15831;SDS011;8016;49.928;9.372;2023-07-20T13:42:22;1.50;;;1.40;;
15831;SDS011;8016;49.928;9.372;2023-07-20T13:44:48;1.95;;;1.23;;
15831;SDS011;8016;49.928;9.372;2023-07-20T13:47:14;1.50;;;1.20;;
15831;SDS011;8016;49.928;9.372;2023-07-20T13:49:40;3.05;;;1.45;;
15831;SDS011;8016;49.928;9.372;2023-07-20T13:52:06;1.90;;;1.53;;
15831;SDS011;8016;49.928;9.372;2023-07-20T13:54:32;3.37;;;1.80;;
15831;SDS011;8016;49.928;9.372;2023-07-20T13:56:58;2.22;;;1.83;;
15831;SDS011;8016;49.928;9.372;2023-07-20T13:59:24;3.40;;;1.60;;
15831;SDS011;8016;49.928;9.372;2023-07-20T14:01:50;2.63;;;1.70;;
15831;SDS011;8016;49.928;9.372;2023-07-20T14:04:17;1.80;;;1.47;;
15831;SDS011;8016;49.928;9.372;2023-07-20T14:06:43;3.20;;;1.70;;
15831;SDS011;8016;49.928;9.372;2023-07-20T14:09:09;2.65;;;1.50;;
15831;SDS011;8016;49.928;9.372;2023-07-20T14:11:35;1.88;;;1.50;;
15831;SDS011;8016;49.928;9.372;2023-07-20T14:14:01;6.35;;;1.70;;
15831;SDS011;8016;49.928;9.372;2023-07-20T14:16:27;2.60;;;1.63;;
15831;SDS011;8016;49.928;9.372;2023-07-20T14:18:53;3.55;;;2.33;;
15831;SDS011;8016;49.928;9.372;2023-07-20T14:21:20;1.83;;;1.50;;
15831;SDS011;8016;49.928;9.372;2023-07-20T14:23:47;3.03;;;1.90;;
15831;SDS011;8016;49.928;9.372;2023-07-20T14:26:13;2.03;;;1.50;;
15831;SDS011;8016;49.928;9.372;2023-07-20T14:28:39;2.30;;;1.80;;
15831;SDS011;8016;49.928;9.372;2023-07-20T14:31:05;2.92;;;1.50;;
15831;SDS011;8016;49.928;9.372;2023-07-20T14:33:31;2.80;;;1.40;;
15831;SDS011;8016;49.928;9.372;2023-07-20T14:35:57;2.47;;;1.40;;
15831;SDS011;8016;49.928;9.372;2023-07-20T14:38:23;2.05;;;1.50;;
15831;SDS011;8016;49.928;9.372;2023-07-20T14:40:49;1.10;;;1.02;;
15831;SDS011;8016;49.928;9.372;2023-07-20T14:43:15;2.30;;;1.73;;
15831;SDS011;8016;49.928;9.372;2023-07-20T14:45:41;1.95;;;1.48;;
15831;SDS011;8016;49.928;9.372;2023-07-20T14:48:07;3.83;;;1.33;;
15831;SDS011;8016;49.928;9.372;2023-07-20T14:50:34;1.40;;;1.25;;
15831;SDS011;8016;49.928;9.372;2023-07-20T14:53:00;1.70;;;1.20;;
15831;SDS011;8016;49.928;9.372;2023-07-20T14:55:26;3.40;;;1.77;;
15831;SDS011;8016;49.928;9.372;2023-07-20T14:57:52;2.90;;;1.70;;
15831;SDS011;8016;49.928;9.372;2023-07-20T15:00:18;3.05;;;1.30;;
15831;SDS011;8016;49.928;9.372;2023-07-20T15:02:44;2.25;;;1.50;;
15831;SDS011;8016;49.928;9.372;2023-07-20T15:05:10;3.35;;;1.90;;
15831;SDS011;8016;49.928;9.372;2023-07-20T15:07:37;2.20;;;1.70;;
15831;SDS011;8016;49.928;9.372;2023-07-20T15:10:03;1.97;;;1.57;;
15831;SDS011;8016;49.928;9.372;2023-07-20T15:12:30;3.30;;;1.75;;